Chandler, MN

11:43 AM CDT on October 31, 2014 (GMT -0500)
Chandler | Change Station
CLOSE
Current Station
Airport
Location: Alexandria,
Elevation: 1424 ft
Nearby Weather Stations

Elev 1424 ft 45.87 °N, 95.39 °W | Updated 50 minutes ago

Clear
Clear
30 °F
Feels Like 22 °F
N
8
Wind Variable Wind from NNE

Today
High -- | Low -- °F
--% Chance of Precip.
Yesterday
High -- | Low -- °F
Precip. -- in
8:00 AM 6:09 PM
First Quarter, 57% visible
Pressure 30.66 in
Visibility 10.0 miles
Clouds Clear
Windchill 22 °F
Dew Point 19 °F
Humidity 64%
Rainfall 0.00 in
Snow Depth Not available.
UV 2 out of 12
Pollen .10 out of 12
Air Quality Not available.
Flu Activity Not available.
METAR KAXN 311553Z AUTO 02007KT 10SM CLR M01/M07 A3059 RMK AO2 SLP381 T10111072

More Conditions Fewer Conditions

Pressure 30.66 in
Visibility 10.0 miles
Clouds Clear
Windchill 22 °F
Dew Point 19 °F
Humidity 64%
Rainfall 0.00 in
Snow Depth Not available.
UV 2 out of 12
Pollen .10 out of 12
Air Quality Not available.
Flu Activity Not available.
METAR KAXN 311553Z AUTO 02007KT 10SM CLR M01/M07 A3059 RMK AO2 SLP381 T10111072

More Conditions Fewer Conditions

10-Day Weather Forecast

Almanac

Astronomy

Oct. 31, 2014 Rise Set
Actual Time
Civil Twilight
Nautical Twilight
Astronomical Twilight
Moon
Length of Visible Light
Length of Day
Tomorrow will be .
, % of the Moon is Illuminated

Today's Extremes

State Highs State Lows

Community

WunderPhotos

Upload Photos

1,766,657 photos uploaded!

WunderBlogs® & News

Nearby

Air Quality

  Air Quality AQ Index Pollutant
Not available.

Snow Depth

Station Depth Elevation

Earthquake Activity

City Distance Mag. Time & Date
Minimum magnitude displayed is 2.5.

Coastal Water Temperatures

Place Temperature

Nearby Weather Stations